Time;durP1;ratioP1;P1;durP2;ratioP2;P2;SDS_P1;SDS_P2;PMS_P1;PMS_P2;Temp;Humidity;BMP_temperature;BMP_pressure;BME280_temperature;BME280_humidity;BME280_pressure;Samples;Min_cycle;Max_cycle;Signal;HPM_P1;HPM_P2
2022/09/11 00:01:16;;;;;;;;;;;16.00;99.90;;;;;;4981911;28;19956;-78
2022/09/11 00:03:42;;;;;;;;;;;15.90;99.90;;;;;;4983375;28;20269;-78
2022/09/11 00:06:09;;;;;;;;;;;15.90;99.90;;;;;;4982299;28;19934;-78
2022/09/11 00:08:35;;;;;;;;;;;15.90;99.90;;;;;;4983271;28;19933;-78
2022/09/11 00:11:03;;;;;;;;;;;15.90;99.90;;;;;;4983362;28;20288;-78
2022/09/11 00:13:29;;;;;;;;;;;15.90;99.90;;;;;;4984211;28;19926;-77
2022/09/11 00:15:55;;;;;;;;;;;15.90;99.90;;;;;;4982465;28;19929;-79
2022/09/11 00:18:21;;;;;;;;;;;15.90;99.90;;;;;;4983346;28;19926;-78
2022/09/11 00:20:51;;;;;;;;;;;15.80;99.90;;;;;;4983112;28;19951;-78
2022/09/11 00:23:17;;;;;;;;;;;15.80;99.90;;;;;;4983198;28;19937;-78
2022/09/11 00:25:45;;;;;;;;;;;15.80;99.90;;;;;;4983304;28;19933;-77
2022/09/11 00:28:14;;;;;;;;;;;15.80;99.90;;;;;;4983628;28;19925;-78
2022/09/11 00:30:42;;;;;;;;;;;15.80;99.90;;;;;;4982710;28;19979;-77
2022/09/11 00:33:08;;;;;;;;;;;15.80;99.90;;;;;;4982633;28;19965;-78
2022/09/11 00:35:33;;;;;;;;;;;15.80;99.90;;;;;;4982920;28;19969;-78
2022/09/11 00:37:59;;;;;;;;;;;15.80;99.90;;;;;;4983815;28;20403;-78
2022/09/11 00:40:24;;;;;;;;;;;15.80;99.90;;;;;;4983162;28;19925;-78
2022/09/11 00:42:51;;;;;;;;;;;15.80;99.90;;;;;;4982850;28;19930;-78
2022/09/11 00:45:21;;;;;;;;;;;15.80;99.90;;;;;;4983171;28;19975;-78
2022/09/11 00:47:48;;;;;;;;;;;15.70;99.90;;;;;;4982240;28;20012;-77
2022/09/11 00:50:16;;;;;;;;;;;15.70;99.90;;;;;;4981605;28;19933;-77
2022/09/11 00:52:48;;;;;;;;;;;15.70;99.90;;;;;;4982671;28;19976;-78
2022/09/11 00:55:17;;;;;;;;;;;15.60;99.90;;;;;;4978988;28;20340;-77
2022/09/11 00:57:48;;;;;;;;;;;15.60;99.90;;;;;;4982592;28;20447;-77
2022/09/11 01:00:14;;;;;;;;;;;15.60;99.90;;;;;;4984597;28;20429;-78
2022/09/11 01:02:41;;;;;;;;;;;15.50;99.90;;;;;;4985450;28;19934;-78
2022/09/11 01:05:08;;;;;;;;;;;15.50;99.90;;;;;;4986057;28;20027;-78
2022/09/11 01:07:35;;;;;;;;;;;15.40;99.90;;;;;;4986504;28;19988;-78
2022/09/11 01:10:02;;;;;;;;;;;15.40;99.90;;;;;;4995787;23;19906;-78
2022/09/11 01:12:35;;;;;;;;;;;15.30;99.90;;;;;;4979464;28;19976;-78
2022/09/11 01:15:06;;;;;;;;;;;15.20;99.90;;;;;;4981030;28;20016;-78
2022/09/11 01:17:31;;;;;;;;;;;15.30;99.90;;;;;;4983289;28;19933;-78
2022/09/11 01:19:57;;;;;;;;;;;15.30;99.90;;;;;;4977235;28;19930;-78
2022/09/11 01:22:35;;;;;;;;;;;15.30;99.90;;;;;;4974056;28;19926;-78
2022/09/11 01:25:14;;;;;;;;;;;15.20;99.90;;;;;;4973691;28;19929;-79
2022/09/11 01:27:41;;;;;;;;;;;15.20;99.90;;;;;;4966182;28;19926;-77
2022/09/11 01:30:12;;;;;;;;;;;15.20;99.90;;;;;;4978482;28;19929;-78
2022/09/11 01:32:58;;;;;;;;;;;15.20;99.90;;;;;;4985114;28;20466;-78
2022/09/11 01:35:26;;;;;;;;;;;15.10;99.90;;;;;;4983754;28;20300;-78
2022/09/11 01:37:58;;;;;;;;;;;15.10;99.90;;;;;;4968497;28;19962;-78
2022/09/11 01:40:26;;;;;;;;;;;15.10;99.90;;;;;;4966145;28;19926;-78
2022/09/11 01:42:56;;;;;;;;;;;15.10;99.90;;;;;;4966741;28;19927;-77
2022/09/11 01:45:24;;;;;;;;;;;15.00;99.90;;;;;;4979166;28;19919;-78
2022/09/11 01:47:52;;;;;;;;;;;15.00;99.90;;;;;;4965162;28;19976;-78
2022/09/11 01:50:19;;;;;;;;;;;14.90;99.90;;;;;;4967580;28;19948;-78
2022/09/11 01:52:54;;;;;;;;;;;14.90;99.90;;;;;;4966548;28;19929;-78
2022/09/11 01:55:21;;;;;;;;;;;14.90;99.90;;;;;;4970496;28;20624;-78
2022/09/11 01:57:46;;;;;;;;;;;14.90;99.90;;;;;;4966528;28;19989;-78
2022/09/11 02:00:12;;;;;;;;;;;14.90;99.90;;;;;;4973361;28;19926;-77
2022/09/11 02:02:43;;;;;;;;;;;14.90;99.90;;;;;;4970496;28;20385;-77
2022/09/11 02:05:29;;;;;;;;;;;14.90;99.90;;;;;;4966031;28;19926;-78
2022/09/11 02:07:58;;;;;;;;;;;14.80;99.90;;;;;;4977310;28;19926;-77
2022/09/11 02:10:33;;;;;;;;;;;14.80;99.90;;;;;;4965581;28;20446;-78
2022/09/11 02:13:03;;;;;;;;;;;14.80;99.90;;;;;;4979881;28;19926;-78
2022/09/11 02:15:37;;;;;;;;;;;14.80;99.90;;;;;;4969016;28;19934;-77
2022/09/11 02:18:08;;;;;;;;;;;14.80;99.90;;;;;;4997356;28;20324;-78
2022/09/11 02:20:35;;;;;;;;;;;14.80;99.90;;;;;;4974480;28;19933;-78
2022/09/11 02:23:00;;;;;;;;;;;14.70;99.90;;;;;;4985721;28;19925;-79
2022/09/11 02:25:26;;;;;;;;;;;14.70;99.90;;;;;;4985531;28;20299;-77
2022/09/11 02:27:53;;;;;;;;;;;14.60;99.90;;;;;;4972906;28;20471;-78
2022/09/11 02:30:19;;;;;;;;;;;14.60;99.90;;;;;;4965952;28;19927;-78
2022/09/11 02:32:44;;;;;;;;;;;14.60;99.90;;;;;;4964748;28;19926;-78
2022/09/11 02:35:10;;;;;;;;;;;14.50;99.90;;;;;;4973699;28;20296;-78
2022/09/11 02:37:54;;;;;;;;;;;14.60;99.90;;;;;;4981118;28;19933;-78
2022/09/11 02:40:20;;;;;;;;;;;14.50;99.90;;;;;;4970873;28;19930;-78
2022/09/11 02:43:04;;;;;;;;;;;14.50;99.90;;;;;;4965753;28;20186;-78
2022/09/11 02:45:40;;;;;;;;;;;14.40;99.90;;;;;;4977481;28;19930;-78
2022/09/11 02:48:24;;;;;;;;;;;14.40;99.90;;;;;;4966031;28;20281;-77
2022/09/11 02:50:52;;;;;;;;;;;14.40;99.90;;;;;;4982518;28;20452;-78
2022/09/11 02:53:18;;;;;;;;;;;14.40;99.90;;;;;;4973406;28;19922;-77
2022/09/11 02:55:43;;;;;;;;;;;14.30;99.90;;;;;;4964804;28;19926;-78
2022/09/11 02:58:15;;;;;;;;;;;14.40;99.90;;;;;;4965567;28;20617;-78
2022/09/11 03:00:40;;;;;;;;;;;14.40;99.90;;;;;;4965195;28;19930;-78
2022/09/11 03:03:06;;;;;;;;;;;14.30;99.90;;;;;;4976289;28;19926;-77
2022/09/11 03:05:31;;;;;;;;;;;14.40;99.90;;;;;;4972536;28;19964;-78
2022/09/11 03:07:58;;;;;;;;;;;14.30;99.90;;;;;;4970001;28;19926;-78
2022/09/11 03:10:26;;;;;;;;;;;14.30;99.90;;;;;;4965619;28;19973;-78
2022/09/11 03:12:52;;;;;;;;;;;14.30;99.90;;;;;;4966256;28;19976;-78
2022/09/11 03:15:18;;;;;;;;;;;14.30;99.90;;;;;;4975798;28;20443;-78
2022/09/11 03:17:43;;;;;;;;;;;14.20;99.90;;;;;;4964085;28;19932;-78
2022/09/11 03:20:09;;;;;;;;;;;14.20;99.90;;;;;;4976427;28;20016;-78
2022/09/11 03:22:34;;;;;;;;;;;14.20;99.90;;;;;;4965315;28;19926;-78
2022/09/11 03:25:00;;;;;;;;;;;14.20;99.90;;;;;;4976671;28;20359;-78
2022/09/11 03:27:26;;;;;;;;;;;14.20;99.90;;;;;;4985107;28;19973;-78
2022/09/11 03:29:51;;;;;;;;;;;14.20;99.90;;;;;;4973244;28;19922;-77
2022/09/11 03:32:17;;;;;;;;;;;14.20;99.90;;;;;;4965155;28;20342;-78
2022/09/11 03:34:42;;;;;;;;;;;14.10;99.90;;;;;;4960246;28;19927;-78
2022/09/11 03:37:08;;;;;;;;;;;14.10;99.90;;;;;;4960242;28;19922;-78
2022/09/11 03:39:33;;;;;;;;;;;14.20;99.90;;;;;;4976389;28;20056;-77
2022/09/11 03:41:59;;;;;;;;;;;14.10;99.90;;;;;;4980376;28;19926;-78
2022/09/11 03:44:26;;;;;;;;;;;14.10;99.90;;;;;;4979179;28;19926;-77
2022/09/11 03:46:51;;;;;;;;;;;14.10;99.90;;;;;;4969765;28;19926;-78
2022/09/11 03:49:17;;;;;;;;;;;14.10;99.90;;;;;;4970297;28;19937;-77
2022/09/11 03:51:42;;;;;;;;;;;14.10;99.90;;;;;;4970618;28;20400;-78
2022/09/11 03:54:08;;;;;;;;;;;14.10;99.90;;;;;;4964733;28;20403;-78
2022/09/11 03:56:34;;;;;;;;;;;14.10;99.90;;;;;;4964252;28;20399;-78
2022/09/11 03:59:00;;;;;;;;;;;14.00;99.90;;;;;;4967888;28;19981;-79
2022/09/11 04:01:25;;;;;;;;;;;14.00;99.90;;;;;;4974084;28;19973;-78
2022/09/11 04:03:51;;;;;;;;;;;14.00;99.90;;;;;;4964960;28;20537;-78
2022/09/11 04:06:17;;;;;;;;;;;13.90;99.90;;;;;;4975477;28;19926;-77
2022/09/11 04:08:42;;;;;;;;;;;13.90;99.90;;;;;;4983326;28;20376;-78
2022/09/11 04:11:10;;;;;;;;;;;13.90;99.90;;;;;;4973231;28;19926;-77
2022/09/11 04:13:37;;;;;;;;;;;13.80;99.90;;;;;;4967839;28;19933;-77
2022/09/11 04:16:08;;;;;;;;;;;13.80;99.90;;;;;;4952897;28;19933;-78
2022/09/11 04:18:36;;;;;;;;;;;13.80;99.90;;;;;;4984993;28;19973;-78
2022/09/11 04:21:05;;;;;;;;;;;13.80;99.90;;;;;;4976629;28;20454;-78
2022/09/11 04:23:30;;;;;;;;;;;13.80;99.90;;;;;;4964375;28;19925;-78
2022/09/11 04:25:57;;;;;;;;;;;13.80;99.90;;;;;;4984009;28;20014;-77
2022/09/11 04:28:22;;;;;;;;;;;13.70;99.90;;;;;;4979937;28;19969;-77
2022/09/11 04:30:48;;;;;;;;;;;13.70;99.90;;;;;;4962890;28;19969;-77
2022/09/11 04:33:13;;;;;;;;;;;13.70;99.90;;;;;;4970124;28;19933;-78
2022/09/11 04:35:39;;;;;;;;;;;13.70;99.90;;;;;;4971181;28;19930;-78
2022/09/11 04:38:05;;;;;;;;;;;13.60;99.90;;;;;;4964184;28;19922;-78
2022/09/11 04:40:32;;;;;;;;;;;13.70;99.90;;;;;;4975933;28;19941;-78
2022/09/11 04:42:59;;;;;;;;;;;13.70;99.90;;;;;;4979094;28;19926;-77
2022/09/11 04:45:24;;;;;;;;;;;13.60;99.90;;;;;;4963452;28;20013;-77
2022/09/11 04:47:51;;;;;;;;;;;13.60;99.90;;;;;;4963593;28;20021;-77
2022/09/11 04:50:17;;;;;;;;;;;13.60;99.90;;;;;;4963776;28;19930;-77
2022/09/11 04:52:43;;;;;;;;;;;13.60;99.90;;;;;;4980229;28;19952;-78
2022/09/11 04:55:10;;;;;;;;;;;13.70;99.90;;;;;;4981795;28;19926;-77
2022/09/11 04:57:36;;;;;;;;;;;13.60;99.90;;;;;;4974558;28;20403;-78
2022/09/11 05:00:02;;;;;;;;;;;13.50;99.90;;;;;;4964754;28;19926;-78
2022/09/11 05:02:28;;;;;;;;;;;13.50;99.90;;;;;;4963405;28;19933;-77
2022/09/11 05:04:53;;;;;;;;;;;13.60;99.90;;;;;;4975308;28;19945;-77
2022/09/11 05:07:19;;;;;;;;;;;13.50;99.90;;;;;;4980702;28;19933;-77
2022/09/11 05:09:44;;;;;;;;;;;13.50;99.90;;;;;;4964121;28;19981;-78
2022/09/11 05:12:16;;;;;;;;;;;13.50;99.90;;;;;;4982940;28;19972;-78
2022/09/11 05:14:42;;;;;;;;;;;13.50;99.90;;;;;;4981683;28;19926;-78
2022/09/11 05:17:07;;;;;;;;;;;13.50;99.90;;;;;;4981851;28;20685;-78
2022/09/11 05:19:32;;;;;;;;;;;13.50;99.90;;;;;;4982427;28;19934;-78
2022/09/11 05:21:58;;;;;;;;;;;13.40;99.90;;;;;;4977531;28;20318;-78
2022/09/11 05:24:23;;;;;;;;;;;13.50;99.90;;;;;;4963384;28;19926;-78
2022/09/11 05:26:49;;;;;;;;;;;13.50;99.90;;;;;;4996325;28;19926;-78
2022/09/11 05:29:15;;;;;;;;;;;13.50;99.90;;;;;;4970513;28;19926;-78
2022/09/11 05:31:41;;;;;;;;;;;13.50;99.90;;;;;;4962341;28;19937;-78
2022/09/11 05:34:07;;;;;;;;;;;13.50;99.90;;;;;;4965448;28;19926;-78
2022/09/11 05:36:34;;;;;;;;;;;13.60;99.90;;;;;;4963793;28;19933;-78
2022/09/11 05:38:59;;;;;;;;;;;13.50;99.90;;;;;;4963586;28;19926;-79
2022/09/11 05:41:25;;;;;;;;;;;13.60;99.90;;;;;;4964282;28;19934;-78
2022/09/11 05:43:50;;;;;;;;;;;13.50;99.90;;;;;;4973396;28;19926;-79
2022/09/11 05:46:17;;;;;;;;;;;13.60;99.90;;;;;;4962845;28;19953;-78
2022/09/11 05:48:42;;;;;;;;;;;13.60;99.90;;;;;;4980486;28;20372;-79
2022/09/11 05:51:12;;;;;;;;;;;13.60;99.90;;;;;;4966549;28;19927;-78
2022/09/11 05:53:38;;;;;;;;;;;13.60;99.90;;;;;;4965891;28;20464;-79
2022/09/11 05:56:12;;;;;;;;;;;13.70;99.90;;;;;;4967582;28;19961;-79
2022/09/11 05:58:37;;;;;;;;;;;13.70;99.90;;;;;;4983366;28;19956;-79
2022/09/11 06:01:04;;;;;;;;;;;13.70;99.90;;;;;;4981805;28;19973;-79
2022/09/11 06:03:31;;;;;;;;;;;13.80;99.90;;;;;;4969465;28;19926;-80
2022/09/11 06:05:58;;;;;;;;;;;13.80;99.90;;;;;;4966794;28;19972;-79
2022/09/11 06:08:23;;;;;;;;;;;13.90;99.90;;;;;;4967576;28;20372;-79
2022/09/11 06:10:48;;;;;;;;;;;13.90;99.90;;;;;;4966347;28;19930;-79
2022/09/11 06:13:17;;;;;;;;;;;13.90;99.90;;;;;;4975295;28;19926;-79
2022/09/11 06:15:46;;;;;;;;;;;14.00;99.90;;;;;;4967172;28;19945;-79
2022/09/11 06:18:12;;;;;;;;;;;14.00;99.90;;;;;;4965996;28;19937;-78
2022/09/11 06:20:38;;;;;;;;;;;14.00;99.90;;;;;;4970476;28;19930;-78
2022/09/11 06:23:03;;;;;;;;;;;14.10;99.90;;;;;;4966096;28;19932;-80
2022/09/11 06:25:29;;;;;;;;;;;14.10;99.90;;;;;;4966697;28;20320;-76
2022/09/11 06:27:55;;;;;;;;;;;14.20;99.90;;;;;;4977517;28;19961;-76
2022/09/11 06:30:20;;;;;;;;;;;14.30;99.90;;;;;;4972296;28;20033;-76
2022/09/11 06:32:50;;;;;;;;;;;14.30;99.90;;;;;;4965485;28;20013;-76
2022/09/11 06:35:15;;;;;;;;;;;14.40;99.90;;;;;;4946015;28;19972;-77
2022/09/11 06:37:41;;;;;;;;;;;14.40;99.90;;;;;;4976859;28;19965;-78
2022/09/11 06:40:07;;;;;;;;;;;14.40;99.90;;;;;;4964104;28;19926;-77
2022/09/11 06:42:32;;;;;;;;;;;14.50;99.90;;;;;;4974277;28;20372;-78
2022/09/11 06:44:58;;;;;;;;;;;14.50;99.90;;;;;;4983198;28;19934;-78
2022/09/11 06:47:23;;;;;;;;;;;14.60;99.90;;;;;;4994144;28;19969;-77
2022/09/11 06:49:49;;;;;;;;;;;14.60;99.90;;;;;;4964235;28;20351;-77
2022/09/11 06:52:14;;;;;;;;;;;14.70;99.90;;;;;;4965294;28;20016;-77
2022/09/11 06:54:40;;;;;;;;;;;14.70;99.90;;;;;;4972724;28;19930;-77
2022/09/11 06:57:05;;;;;;;;;;;14.70;99.90;;;;;;4983736;28;19972;-77
2022/09/11 06:59:31;;;;;;;;;;;14.80;99.90;;;;;;4968407;28;19970;-77
2022/09/11 07:01:59;;;;;;;;;;;14.80;99.90;;;;;;4963842;28;19933;-77
2022/09/11 07:04:25;;;;;;;;;;;14.90;99.90;;;;;;4963887;28;19926;-77
2022/09/11 07:06:50;;;;;;;;;;;14.90;99.90;;;;;;4966487;28;20316;-78
2022/09/11 07:09:16;;;;;;;;;;;15.00;99.90;;;;;;4973626;28;19933;-77
2022/09/11 07:11:43;;;;;;;;;;;15.00;99.90;;;;;;4963871;28;19933;-77
2022/09/11 07:14:09;;;;;;;;;;;15.00;99.90;;;;;;4978974;28;19933;-78
2022/09/11 07:16:35;;;;;;;;;;;15.10;99.90;;;;;;4964498;28;19926;-78
2022/09/11 07:19:02;;;;;;;;;;;15.20;99.90;;;;;;4963653;28;19961;-79
2022/09/11 07:21:27;;;;;;;;;;;15.20;99.90;;;;;;4994292;28;19973;-77
2022/09/11 07:23:54;;;;;;;;;;;15.20;99.90;;;;;;4965819;28;19981;-77
2022/09/11 07:26:21;;;;;;;;;;;15.30;99.90;;;;;;4971593;28;19930;-77
2022/09/11 07:28:51;;;;;;;;;;;15.30;99.90;;;;;;4976262;28;19926;-77
2022/09/11 07:31:17;;;;;;;;;;;15.40;99.90;;;;;;4968707;28;19933;-77
2022/09/11 07:33:47;;;;;;;;;;;15.40;99.90;;;;;;4965459;28;19980;-77
2022/09/11 07:36:15;;;;;;;;;;;15.40;99.90;;;;;;4977351;28;19930;-77
2022/09/11 07:38:41;;;;;;;;;;;15.50;99.90;;;;;;4966540;28;19926;-77
2022/09/11 07:41:10;;;;;;;;;;;15.50;99.90;;;;;;4973407;28;19926;-77
2022/09/11 07:43:36;;;;;;;;;;;15.60;99.90;;;;;;4967121;28;19988;-78
2022/09/11 07:46:02;;;;;;;;;;;15.70;99.90;;;;;;4970116;28;20017;-78
2022/09/11 07:48:28;;;;;;;;;;;15.70;99.90;;;;;;4971690;28;19922;-77
2022/09/11 07:51:04;;;;;;;;;;;15.80;99.90;;;;;;4970918;28;19933;-77
2022/09/11 07:53:33;;;;;;;;;;;15.80;99.90;;;;;;4963097;28;19922;-78
2022/09/11 07:56:02;;;;;;;;;;;15.90;99.90;;;;;;4983772;28;20130;-77
2022/09/11 07:58:32;;;;;;;;;;;15.90;99.90;;;;;;4971495;28;19928;-77
2022/09/11 08:00:58;;;;;;;;;;;16.00;99.90;;;;;;4982774;28;19926;-77
2022/09/11 08:03:24;;;;;;;;;;;16.00;99.90;;;;;;4970812;28;19949;-77
2022/09/11 08:05:50;;;;;;;;;;;16.10;99.90;;;;;;4970403;28;20289;-77
2022/09/11 08:08:15;;;;;;;;;;;16.10;99.90;;;;;;4975185;28;20044;-77
2022/09/11 08:10:41;;;;;;;;;;;16.20;99.90;;;;;;4978126;28;20492;-77
2022/09/11 08:13:07;;;;;;;;;;;16.20;99.90;;;;;;4982037;28;19929;-77
2022/09/11 08:15:32;;;;;;;;;;;16.30;99.90;;;;;;4971248;28;19949;-77
2022/09/11 08:17:57;;;;;;;;;;;16.30;99.90;;;;;;4983733;28;19945;-77
2022/09/11 08:20:23;;;;;;;;;;;16.30;99.90;;;;;;4983221;28;20277;-79
2022/09/11 08:22:48;;;;;;;;;;;16.40;99.90;;;;;;4982156;28;20251;-78
2022/09/11 08:25:14;;;;;;;;;;;16.50;99.90;;;;;;4983139;28;19988;-78
2022/09/11 08:27:39;;;;;;;;;;;16.50;99.90;;;;;;4978573;28;19930;-79
2022/09/11 08:30:05;;;;;;;;;;;16.50;99.90;;;;;;4963349;28;20561;-79
2022/09/11 08:32:31;;;;;;;;;;;16.60;99.90;;;;;;5000720;28;19926;-78
2022/09/11 08:34:57;;;;;;;;;;;16.50;99.90;;;;;;4971162;28;21129;-77
2022/09/11 08:37:22;;;;;;;;;;;16.50;99.90;;;;;;4976117;28;19949;-78
2022/09/11 08:39:48;;;;;;;;;;;16.60;99.90;;;;;;4964756;28;19926;-78
2022/09/11 08:42:15;;;;;;;;;;;16.60;99.90;;;;;;4975611;28;20009;-78
2022/09/11 08:44:48;;;;;;;;;;;16.70;99.90;;;;;;4972986;28;19926;-78
2022/09/11 08:47:19;;;;;;;;;;;16.80;99.90;;;;;;4962636;28;19957;-78
2022/09/11 08:49:48;;;;;;;;;;;16.80;99.90;;;;;;4979125;28;20021;-77
2022/09/11 08:52:14;;;;;;;;;;;16.90;99.90;;;;;;4974364;28;19977;-77
2022/09/11 08:54:41;;;;;;;;;;;16.90;99.90;;;;;;4963317;28;20451;-78
2022/09/11 08:57:16;;;;;;;;;;;16.90;99.90;;;;;;5007063;28;19933;-79
2022/09/11 08:59:41;;;;;;;;;;;17.00;99.90;;;;;;4962502;28;19933;-79
2022/09/11 09:02:20;;;;;;;;;;;17.00;99.90;;;;;;4961728;28;19930;-79
2022/09/11 09:05:13;;;;;;;;;;;17.10;99.90;;;;;;4966964;28;19926;-79
2022/09/11 09:07:45;;;;;;;;;;;17.10;99.90;;;;;;4961710;28;20037;-79
2022/09/11 09:10:40;;;;;;;;;;;17.10;99.90;;;;;;4960211;28;19932;-80
2022/09/11 09:13:05;;;;;;;;;;;17.20;99.90;;;;;;4953875;28;19933;-80
2022/09/11 09:15:49;;;;;;;;;;;17.20;99.90;;;;;;4973273;28;19925;-79
2022/09/11 09:18:32;;;;;;;;;;;17.30;99.90;;;;;;4971888;28;19930;-79
2022/09/11 09:21:13;;;;;;;;;;;17.40;99.90;;;;;;4961052;28;20371;-79
2022/09/11 09:23:44;;;;;;;;;;;17.40;99.90;;;;;;4969920;28;19981;-79
2022/09/11 09:26:14;;;;;;;;;;;17.40;99.90;;;;;;4968369;28;19934;-78
2022/09/11 09:28:44;;;;;;;;;;;17.50;99.90;;;;;;4967526;28;19930;-79
2022/09/11 09:31:10;;;;;;;;;;;17.50;99.90;;;;;;4983187;28;20056;-79
2022/09/11 09:33:45;;;;;;;;;;;17.50;99.90;;;;;;4980393;28;19934;-79
2022/09/11 09:36:10;;;;;;;;;;;17.50;99.90;;;;;;4970908;28;19926;-79
2022/09/11 09:38:36;;;;;;;;;;;17.50;99.90;;;;;;4976063;28;19926;-79
2022/09/11 09:41:15;;;;;;;;;;;17.50;99.90;;;;;;4971610;28;19984;-79
2022/09/11 09:43:45;;;;;;;;;;;17.40;99.90;;;;;;4971713;28;19929;-79
2022/09/11 09:46:35;;;;;;;;;;;17.50;99.90;;;;;;4980625;28;19930;-79
2022/09/11 09:49:00;;;;;;;;;;;17.50;99.90;;;;;;4998577;28;20783;-80
2022/09/11 09:51:26;;;;;;;;;;;17.40;99.90;;;;;;4975979;28;19965;-79
2022/09/11 09:53:53;;;;;;;;;;;17.40;99.90;;;;;;4972340;28;19988;-79
2022/09/11 09:56:19;;;;;;;;;;;17.40;99.90;;;;;;4981145;28;19932;-79
2022/09/11 09:58:54;;;;;;;;;;;17.40;99.90;;;;;;4966759;28;19927;-79
2022/09/11 10:01:47;;;;;;;;;;;17.40;99.90;;;;;;4969411;28;20289;-79
2022/09/11 10:04:14;;;;;;;;;;;17.40;99.90;;;;;;4978846;28;20523;-79
2022/09/11 10:06:40;;;;;;;;;;;17.40;99.90;;;;;;4964358;28;19976;-79
2022/09/11 10:09:05;;;;;;;;;;;17.40;99.90;;;;;;4965297;28;19965;-79
2022/09/11 10:11:31;;;;;;;;;;;17.50;99.90;;;;;;4964504;28;19926;-79
2022/09/11 10:13:56;;;;;;;;;;;17.40;99.90;;;;;;4965746;28;19938;-79
2022/09/11 10:16:26;;;;;;;;;;;17.50;99.90;;;;;;4963334;28;19933;-79
2022/09/11 10:18:52;;;;;;;;;;;17.50;99.90;;;;;;4964529;28;19922;-79
2022/09/11 10:21:20;;;;;;;;;;;17.50;99.90;;;;;;4979873;28;19973;-79
2022/09/11 10:23:50;;;;;;;;;;;17.60;99.90;;;;;;4964495;28;20336;-79
2022/09/11 10:26:17;;;;;;;;;;;17.70;99.90;;;;;;4964691;28;20428;-80
2022/09/11 10:28:45;;;;;;;;;;;17.80;99.90;;;;;;4964355;28;20130;-80
2022/09/11 10:31:13;;;;;;;;;;;17.90;99.90;;;;;;4963526;28;19981;-79
2022/09/11 10:33:40;;;;;;;;;;;18.00;99.90;;;;;;4964275;28;19937;-79
2022/09/11 10:36:07;;;;;;;;;;;18.10;99.90;;;;;;4948743;28;19926;-79
2022/09/11 10:38:44;;;;;;;;;;;18.20;99.90;;;;;;4944950;28;19950;-80
2022/09/11 10:41:12;;;;;;;;;;;18.20;99.90;;;;;;4945089;28;19938;-79
2022/09/11 10:43:59;;;;;;;;;;;18.30;99.90;;;;;;4945024;28;20290;-79
2022/09/11 10:46:45;;;;;;;;;;;18.30;99.90;;;;;;4944408;28;20179;-80
2022/09/11 10:49:18;;;;;;;;;;;18.40;99.90;;;;;;4944860;28;19926;-79
2022/09/11 10:52:01;;;;;;;;;;;18.40;99.90;;;;;;4945050;28;19926;-79
2022/09/11 10:54:45;;;;;;;;;;;18.50;99.90;;;;;;4945431;28;19960;-79
2022/09/11 10:57:20;;;;;;;;;;;18.50;99.90;;;;;;4992045;28;19926;-79
2022/09/11 10:59:51;;;;;;;;;;;18.50;99.90;;;;;;4943772;28;20344;-79
2022/09/11 11:02:27;;;;;;;;;;;18.60;99.90;;;;;;4944979;28;19930;-79
2022/09/11 11:04:54;;;;;;;;;;;18.50;99.90;;;;;;4944693;28;19926;-79
2022/09/11 11:07:28;;;;;;;;;;;18.50;99.90;;;;;;4944606;28;20421;-79
2022/09/11 11:09:53;;;;;;;;;;;18.50;99.90;;;;;;4944172;28;19932;-79
2022/09/11 11:12:39;;;;;;;;;;;18.60;99.90;;;;;;4945222;28;19934;-79
2022/09/11 11:15:12;;;;;;;;;;;18.60;99.90;;;;;;4943724;28;19926;-80
2022/09/11 11:17:49;;;;;;;;;;;18.70;99.90;;;;;;4942903;28;19927;-80
2022/09/11 11:20:27;;;;;;;;;;;18.60;99.90;;;;;;4944725;28;19926;-79
2022/09/11 11:23:11;;;;;;;;;;;18.70;99.90;;;;;;4944277;28;19974;-79
2022/09/11 11:25:56;;;;;;;;;;;18.70;99.90;;;;;;4975224;28;19937;-80
2022/09/11 11:28:27;;;;;;;;;;;18.70;99.90;;;;;;4944497;28;20009;-79
2022/09/11 11:30:54;;;;;;;;;;;18.80;99.90;;;;;;4943354;28;19926;-79
2022/09/11 11:33:22;;;;;;;;;;;18.80;99.90;;;;;;4944225;28;19930;-79
2022/09/11 11:35:56;;;;;;;;;;;18.90;99.90;;;;;;4956869;28;19956;-79
2022/09/11 11:38:45;;;;;;;;;;;18.90;99.90;;;;;;4975194;28;19926;-79
2022/09/11 11:41:17;;;;;;;;;;;19.00;99.90;;;;;;4981446;28;19926;-79
2022/09/11 11:43:47;;;;;;;;;;;18.90;99.90;;;;;;4974473;28;19926;-79
2022/09/11 11:46:22;;;;;;;;;;;18.90;99.90;;;;;;4965084;28;20388;-79
2022/09/11 11:48:48;;;;;;;;;;;18.90;99.90;;;;;;4982630;28;19932;-80
2022/09/11 11:51:16;;;;;;;;;;;18.90;99.90;;;;;;4968447;28;19987;-79
2022/09/11 11:53:47;;;;;;;;;;;18.90;99.90;;;;;;4981568;28;19969;-78
2022/09/11 11:56:16;;;;;;;;;;;18.90;99.90;;;;;;4967375;28;20672;-78
2022/09/11 11:58:48;;;;;;;;;;;18.90;99.90;;;;;;4962715;28;19926;-78
2022/09/11 12:01:32;;;;;;;;;;;19.00;99.90;;;;;;4961955;28;19989;-78
2022/09/11 12:04:11;;;;;;;;;;;19.20;99.90;;;;;;4994808;28;19926;-78
2022/09/11 12:06:37;;;;;;;;;;;19.40;99.90;;;;;;4962627;28;19974;-78
2022/09/11 12:09:04;;;;;;;;;;;19.40;99.90;;;;;;4961624;28;19969;-78
2022/09/11 12:11:30;;;;;;;;;;;19.40;99.90;;;;;;4961522;28;19933;-80
2022/09/11 12:13:56;;;;;;;;;;;19.30;99.90;;;;;;4994331;28;20020;-78
2022/09/11 12:16:27;;;;;;;;;;;19.30;99.90;;;;;;4962192;28;19969;-79
2022/09/11 12:18:59;;;;;;;;;;;19.30;99.90;;;;;;4971378;28;19926;-77
2022/09/11 12:21:25;;;;;;;;;;;19.30;99.90;;;;;;4975416;28;19933;-77
2022/09/11 12:23:56;;;;;;;;;;;19.30;99.90;;;;;;4962524;28;20369;-77
2022/09/11 12:26:23;;;;;;;;;;;19.20;99.90;;;;;;4966619;28;20246;-77
2022/09/11 12:29:08;;;;;;;;;;;19.20;99.90;;;;;;4962593;28;20392;-77
2022/09/11 12:31:49;;;;;;;;;;;19.30;99.90;;;;;;4960790;28;19934;-77
2022/09/11 12:34:22;;;;;;;;;;;19.30;99.90;;;;;;4961203;28;20281;-77
2022/09/11 12:36:52;;;;;;;;;;;19.40;99.90;;;;;;4961982;28;20198;-77
2022/09/11 12:39:27;;;;;;;;;;;19.50;99.90;;;;;;4962771;28;19984;-77
2022/09/11 12:41:52;;;;;;;;;;;19.60;99.90;;;;;;4959931;28;20380;-77
2022/09/11 12:44:29;;;;;;;;;;;19.60;99.90;;;;;;4961703;28;19952;-77
2022/09/11 12:46:57;;;;;;;;;;;19.60;99.90;;;;;;4964527;28;20420;-77
2022/09/11 12:49:23;;;;;;;;;;;19.50;99.90;;;;;;4970896;28;19953;-77
2022/09/11 12:51:59;;;;;;;;;;;19.50;99.90;;;;;;4961968;28;19926;-76
2022/09/11 12:54:27;;;;;;;;;;;19.40;99.90;;;;;;4963077;28;19933;-77
2022/09/11 12:57:01;;;;;;;;;;;19.40;99.90;;;;;;4975539;28;19933;-77
2022/09/11 12:59:37;;;;;;;;;;;19.40;99.90;;;;;;4965980;28;19933;-77
2022/09/11 13:02:04;;;;;;;;;;;19.30;99.90;;;;;;4965952;28;20600;-77
2022/09/11 13:04:30;;;;;;;;;;;19.30;99.90;;;;;;4969303;28;19980;-77
2022/09/11 13:06:58;;;;;;;;;;;19.30;99.90;;;;;;4974141;28;20312;-79
2022/09/11 13:09:26;;;;;;;;;;;19.30;99.90;;;;;;4985549;28;19988;-79
2022/09/11 13:11:53;;;;;;;;;;;19.40;99.90;;;;;;4946737;28;20411;-79
2022/09/11 13:14:24;;;;;;;;;;;19.40;99.90;;;;;;4964547;28;20020;-78
2022/09/11 13:16:50;;;;;;;;;;;19.50;99.90;;;;;;4980926;28;19996;-78
2022/09/11 13:19:18;;;;;;;;;;;19.50;99.90;;;;;;4973851;28;20771;-79
2022/09/11 13:21:44;;;;;;;;;;;19.70;99.90;;;;;;4966130;28;19972;-79
2022/09/11 13:24:26;;;;;;;;;;;19.70;99.90;;;;;;4966552;28;19930;-79
2022/09/11 13:27:00;;;;;;;;;;;19.80;99.90;;;;;;4965245;28;19922;-79
2022/09/11 13:29:28;;;;;;;;;;;19.90;99.90;;;;;;4979220;28;19926;-79
2022/09/11 13:31:56;;;;;;;;;;;19.90;99.90;;;;;;4966104;28;19929;-79
2022/09/11 13:34:23;;;;;;;;;;;20.00;99.90;;;;;;4964385;28;19975;-78
2022/09/11 13:36:49;;;;;;;;;;;20.00;99.90;;;;;;4945520;28;20398;-78
2022/09/11 13:39:16;;;;;;;;;;;20.00;99.90;;;;;;4946346;28;19954;-78
2022/09/11 13:41:45;;;;;;;;;;;20.00;99.90;;;;;;4960517;28;19933;-79
2022/09/11 13:44:22;;;;;;;;;;;20.00;99.90;;;;;;4963286;28;19949;-79
2022/09/11 13:46:49;;;;;;;;;;;20.10;99.90;;;;;;4965186;28;19936;-79
2022/09/11 13:49:25;;;;;;;;;;;20.10;99.90;;;;;;4964246;28;20001;-79
2022/09/11 13:51:50;;;;;;;;;;;20.10;99.90;;;;;;4964360;28;20269;-79
2022/09/11 13:54:25;;;;;;;;;;;20.10;99.90;;;;;;4962617;28;19941;-79
2022/09/11 13:56:54;;;;;;;;;;;20.20;99.90;;;;;;4964022;28;20253;-78
2022/09/11 13:59:25;;;;;;;;;;;20.30;99.90;;;;;;4960476;28;19936;-78
2022/09/11 14:01:59;;;;;;;;;;;20.30;99.90;;;;;;4964472;28;20150;-79
2022/09/11 14:04:26;;;;;;;;;;;20.30;99.90;;;;;;4963732;28;19932;-78
2022/09/11 14:06:51;;;;;;;;;;;20.30;99.90;;;;;;4963494;28;20025;-78
2022/09/11 14:09:18;;;;;;;;;;;20.30;99.90;;;;;;4965954;28;20361;-78
2022/09/11 14:11:43;;;;;;;;;;;20.30;99.90;;;;;;4965406;28;19926;-78
2022/09/11 14:14:12;;;;;;;;;;;20.30;99.90;;;;;;4964364;28;19972;-79
2022/09/11 14:16:43;;;;;;;;;;;20.30;99.90;;;;;;4964942;28;19984;-78
2022/09/11 14:19:20;;;;;;;;;;;20.40;99.90;;;;;;4963743;28;20740;-77
2022/09/11 14:21:46;;;;;;;;;;;20.40;99.90;;;;;;4972783;28;19973;-78
2022/09/11 14:24:37;;;;;;;;;;;20.50;99.90;;;;;;5015695;28;20384;-78
2022/09/11 14:27:23;;;;;;;;;;;20.50;99.90;;;;;;4975797;28;20401;-78